Time;durP1;ratioP1;P1;durP2;ratioP2;P2;SDS_P1;SDS_P2;PMS_P1;PMS_P2;Temp;Humidity;BMP_temperature;BMP_pressure;BME280_temperature;BME280_humidity;BME280_pressure;Samples;Min_cycle;Max_cycle;Signal;HPM_P1;HPM_P2
2022/05/07 00:01:49;;;;;;;21.10;18.05;;;;;;;12.77;72.57;101605.38;4978490;28;20106;-78
2022/05/07 00:04:15;;;;;;;20.73;17.95;;;;;;;12.83;72.03;101594.28;4978296;28;20133;-78
2022/05/07 00:06:42;;;;;;;23.48;19.30;;;;;;;12.93;71.60;101594.22;4977573;28;20046;-78
2022/05/07 00:09:08;;;;;;;23.23;19.30;;;;;;;12.90;71.74;101595.34;4976749;28;20058;-78
2022/05/07 00:11:35;;;;;;;22.80;18.85;;;;;;;12.86;72.34;101599.25;4976818;28;20101;-78
2022/05/07 00:14:03;;;;;;;30.67;21.15;;;;;;;12.79;72.35;101587.66;4977293;28;20478;-78
2022/05/07 00:19:13;;;;;;;22.60;18.83;;;;;;;12.85;72.26;101581.84;4976809;28;20146;-78
2022/05/07 00:21:40;;;;;;;24.85;18.95;;;;;;;12.85;72.46;101573.94;4976871;28;20046;-77
2022/05/07 00:24:07;;;;;;;23.55;19.38;;;;;;;12.80;72.92;101578.81;4975813;28;20050;-77
2022/05/07 00:26:34;;;;;;;24.40;18.80;;;;;;;12.58;73.92;101585.31;4975133;28;20457;-77
2022/05/07 00:29:00;;;;;;;23.27;17.83;;;;;;;12.45;74.30;101581.38;4974590;28;20047;-77
2022/05/07 00:31:28;;;;;;;23.23;18.42;;;;;;;12.22;74.95;101581.75;4974495;28;20046;-78
2022/05/07 00:33:55;;;;;;;25.90;19.00;;;;;;;12.20;75.51;101588.94;4974621;28;20110;-76
2022/05/07 00:36:21;;;;;;;24.63;18.75;;;;;;;12.09;75.65;101577.78;4974899;28;20057;-76
2022/05/07 00:38:48;;;;;;;25.05;19.10;;;;;;;12.09;75.86;101585.66;4974449;28;20053;-77
2022/05/07 00:41:14;;;;;;;25.55;19.85;;;;;;;12.02;75.83;101576.69;4974795;28;20260;-77
2022/05/07 00:43:41;;;;;;;26.85;18.40;;;;;;;12.05;76.12;101582.47;4975349;28;20483;-78
2022/05/07 00:46:08;;;;;;;26.77;19.75;;;;;;;12.01;76.38;101570.63;4974608;28;20138;-77
2022/05/07 00:48:37;;;;;;;24.35;19.40;;;;;;;11.95;76.48;101569.38;4974675;28;20137;-78
2022/05/07 00:53:49;;;;;;;22.95;18.92;;;;;;;12.07;76.46;101575.28;4974444;28;20158;-77
2022/05/07 00:56:16;;;;;;;27.17;19.63;;;;;;;12.17;76.36;101578.72;4973239;28;20141;-78
2022/05/07 00:58:43;;;;;;;26.83;20.30;;;;;;;12.17;76.63;101570.84;4974132;28;20051;-78
2022/05/07 01:01:10;;;;;;;23.63;20.08;;;;;;;12.02;76.95;101572.25;4975660;28;20141;-77
2022/05/07 01:03:38;;;;;;;25.35;20.17;;;;;;;12.03;76.87;101567.84;4975316;28;20394;-78
2022/05/07 01:06:05;;;;;;;25.65;20.80;;;;;;;12.12;76.77;101565.19;4975566;28;20050;-78
2022/05/07 01:08:33;;;;;;;26.45;20.73;;;;;;;11.96;77.22;101568.41;4975290;28;20081;-78
2022/05/07 01:11:00;;;;;;;27.40;20.52;;;;;;;11.90;77.23;101573.41;4974160;28;20050;-77
2022/05/07 01:13:27;;;;;;;31.10;21.60;;;;;;;11.90;77.19;101560.28;4973388;28;20545;-77
2022/05/07 01:15:57;;;;;;;26.58;20.60;;;;;;;11.88;77.14;101564.84;4973250;28;20481;-78
2022/05/07 01:18:24;;;;;;;28.17;21.05;;;;;;;11.91;76.63;101554.91;4973260;28;20553;-77
2022/05/07 01:20:54;;;;;;;29.58;21.25;;;;;;;11.87;77.12;101558.78;4973504;28;20137;-77
2022/05/07 01:23:22;;;;;;;27.02;21.13;;;;;;;11.74;77.22;101558.25;4973847;28;20061;-77
2022/05/07 01:25:49;;;;;;;26.55;20.38;;;;;;;11.63;77.60;101556.59;4974915;28;20046;-76
2022/05/07 01:28:15;;;;;;;26.17;20.88;;;;;;;11.61;77.74;101558.53;4975278;28;20469;-78
2022/05/07 01:30:42;;;;;;;32.33;21.23;;;;;;;11.55;78.03;101555.63;4975062;28;20541;-78
2022/05/07 01:33:08;;;;;;;29.10;22.13;;;;;;;11.57;78.02;101557.16;4974995;28;20078;-78
2022/05/07 01:35:35;;;;;;;28.67;21.77;;;;;;;11.66;77.39;101558.09;4974782;28;20054;-78
2022/05/07 01:38:02;;;;;;;27.30;21.02;;;;;;;11.59;78.31;101563.06;4974866;28;20061;-77
2022/05/07 01:40:30;;;;;;;28.73;20.65;;;;;;;11.62;77.78;101560.19;4984132;28;20073;-77
2022/05/07 01:42:56;;;;;;;31.85;21.52;;;;;;;11.49;77.64;101554.41;4990375;28;20600;-77
2022/05/07 01:45:23;;;;;;;29.50;20.52;;;;;;;11.47;77.80;101556.31;4979845;28;20134;-77
2022/05/07 01:50:33;;;;;;;25.58;20.17;;;;;;;11.47;77.75;101553.72;4991803;28;20054;-77
2022/05/07 01:53:00;;;;;;;28.73;20.17;;;;;;;11.53;77.17;101550.53;4978800;28;20054;-77
2022/05/07 01:55:27;;;;;;;28.35;20.42;;;;;;;11.38;77.58;101549.28;4978828;28;20138;-77
2022/05/07 01:57:55;;;;;;;28.50;21.48;;;;;;;11.45;77.48;101542.53;4977720;28;20047;-77
2022/05/07 02:00:21;;;;;;;28.83;20.10;;;;;;;11.40;77.65;101539.50;4979768;28;20236;-77
2022/05/07 02:02:48;;;;;;;28.25;21.23;;;;;;;11.26;77.84;101547.81;4979367;28;20053;-78
2022/05/07 02:05:14;;;;;;;30.05;20.90;;;;;;;11.20;78.63;101543.09;4979578;28;20057;-78
2022/05/07 02:07:41;;;;;;;26.33;20.92;;;;;;;11.18;78.57;101539.81;4980180;28;20078;-78
2022/05/07 02:10:09;;;;;;;30.83;22.52;;;;;;;11.10;79.05;101537.03;4983174;28;20315;-78
2022/05/07 02:12:35;;;;;;;30.95;21.80;;;;;;;11.04;79.42;101537.59;4983437;28;20130;-78
2022/05/07 02:15:04;;;;;;;30.45;22.42;;;;;;;11.00;79.78;101541.44;4981805;28;20134;-78
2022/05/07 02:17:30;;;;;;;33.00;24.13;;;;;;;10.96;80.07;101544.31;4982260;28;20735;-78
2022/05/07 02:19:57;;;;;;;31.88;23.33;;;;;;;10.93;79.70;101541.97;4979447;28;20115;-79
2022/05/07 02:22:23;;;;;;;31.92;23.52;;;;;;;10.92;80.19;101545.56;4980630;28;20137;-79
2022/05/07 02:24:51;;;;;;;31.67;23.92;;;;;;;10.89;80.46;101543.22;4978701;28;20058;-79
2022/05/07 02:27:18;;;;;;;32.25;22.83;;;;;;;10.96;79.61;101546.94;4976694;28;20137;-77
2022/05/07 02:29:44;;;;;;;29.88;22.80;;;;;;;10.90;79.76;101551.88;4975969;28;20086;-77
2022/05/07 02:32:13;;;;;;;32.65;23.02;;;;;;;10.93;79.88;101547.22;4976767;28;20057;-77
2022/05/07 02:34:41;;;;;;;34.38;24.33;;;;;;;10.95;79.43;101545.28;4976090;28;20521;-77
2022/05/07 02:37:08;;;;;;;31.85;23.40;;;;;;;10.94;79.60;101542.81;4977909;28;20171;-77
2022/05/07 02:39:34;;;;;;;29.35;21.75;;;;;;;10.97;79.81;101551.22;4977742;28;20057;-78
2022/05/07 02:44:45;;;;;;;35.97;23.00;;;;;;;10.95;79.34;101547.91;4977076;28;20102;-78
2022/05/07 02:47:13;;;;;;;31.65;22.58;;;;;;;11.02;79.38;101550.81;4978174;28;20417;-78
2022/05/07 02:49:39;;;;;;;31.50;22.45;;;;;;;10.98;79.51;101554.66;4977313;28;20568;-78
2022/05/07 02:52:07;;;;;;;30.70;22.65;;;;;;;10.91;79.84;101551.75;4977752;28;20051;-78
2022/05/07 02:54:33;;;;;;;31.10;22.60;;;;;;;10.93;80.05;101549.84;4978277;28;20125;-78
2022/05/07 02:57:00;;;;;;;32.47;22.83;;;;;;;10.91;80.15;101543.91;4977646;28;20050;-77
2022/05/07 02:59:26;;;;;;;29.83;22.77;;;;;;;10.88;80.21;101562.50;4976762;28;20555;-77
2022/05/07 03:01:53;;;;;;;30.45;22.40;;;;;;;10.90;79.86;101551.88;4977584;28;20055;-78
2022/05/07 03:04:21;;;;;;;32.13;22.80;;;;;;;10.88;80.20;101543.34;4977378;28;20061;-79
2022/05/07 03:06:48;;;;;;;29.90;21.33;;;;;;;10.80;80.34;101548.44;4977632;28;20061;-78
2022/05/07 03:09:15;;;;;;;34.53;22.55;;;;;;;10.84;80.46;101545.44;4976922;28;20051;-78
2022/05/07 03:11:42;;;;;;;33.10;23.65;;;;;;;10.74;80.29;101547.19;4978056;28;20566;-77
2022/05/07 03:14:09;;;;;;;35.38;22.95;;;;;;;10.70;80.91;101555.44;4977655;28;20473;-77
2022/05/07 03:16:38;;;;;;;29.77;22.65;;;;;;;10.74;80.39;101552.44;4978017;28;20425;-79
2022/05/07 03:19:05;;;;;;;31.00;22.52;;;;;;;10.69;81.05;101553.78;4977423;28;20059;-79
2022/05/07 03:21:33;;;;;;;31.85;22.52;;;;;;;10.57;81.08;101558.31;4977963;28;20451;-79
2022/05/07 03:24:00;;;;;;;27.60;22.08;;;;;;;10.49;81.76;101552.91;4977769;28;20078;-79
2022/05/07 03:26:26;;;;;;;32.10;22.88;;;;;;;10.52;81.39;101547.41;4976667;28;20501;-77
2022/05/07 03:28:53;;;;;;;30.27;21.73;;;;;;;10.47;81.94;101549.59;4977932;28;20058;-78
2022/05/07 03:31:19;;;;;;;28.40;21.77;;;;;;;10.40;81.96;101544.06;4978494;28;20057;-77
2022/05/07 03:33:46;;;;;;;30.38;22.65;;;;;;;10.41;82.44;101560.59;4976988;28;20057;-77
2022/05/07 03:36:13;;;;;;;30.38;23.33;;;;;;;10.48;81.79;101548.63;4975736;28;20529;-76
2022/05/07 03:38:41;;;;;;;34.00;22.95;;;;;;;10.41;82.14;101555.34;4975789;28;20425;-79
2022/05/07 03:41:08;;;;;;;31.42;22.50;;;;;;;10.43;81.92;101545.56;4977296;28;20426;-79
2022/05/07 03:43:36;;;;;;;33.55;24.73;;;;;;;10.37;82.33;101543.53;4976615;28;20053;-78
2022/05/07 03:46:03;;;;;;;32.03;22.77;;;;;;;10.37;82.49;101551.38;4976092;28;20059;-77
2022/05/07 03:48:30;;;;;;;31.27;22.98;;;;;;;10.36;82.26;101539.25;4975739;28;20533;-77
2022/05/07 03:50:57;;;;;;;34.53;23.52;;;;;;;10.27;82.67;101544.31;4976571;28;20494;-77
2022/05/07 03:53:31;;;;;;;34.03;23.85;;;;;;;10.25;83.26;101541.00;4976733;28;20051;-77
2022/05/07 03:56:00;;;;;;;28.63;22.38;;;;;;;10.19;83.34;101540.66;4975306;28;20081;-77
2022/05/07 03:58:27;;;;;;;30.75;22.65;;;;;;;10.19;83.21;101541.50;4974298;28;20053;-78
2022/05/07 04:00:54;;;;;;;32.05;23.42;;;;;;;10.09;83.70;101540.59;4974724;28;20089;-77
2022/05/07 04:03:22;;;;;;;29.00;22.30;;;;;;;10.09;83.46;101543.22;4974949;28;20074;-77
2022/05/07 04:05:49;;;;;;;30.05;22.15;;;;;;;10.09;83.59;101539.78;4975528;28;20484;-78
2022/05/07 04:08:16;;;;;;;28.67;21.63;;;;;;;10.11;83.35;101536.06;4974506;28;20083;-78
2022/05/07 04:10:43;;;;;;;30.08;22.60;;;;;;;10.16;83.63;101549.59;4974100;28;20450;-77
2022/05/07 04:13:11;;;;;;;29.80;22.75;;;;;;;10.14;83.54;101548.88;4974360;28;20046;-76
2022/05/07 04:15:38;;;;;;;32.67;22.15;;;;;;;10.09;83.68;101551.06;4974784;28;20054;-77
2022/05/07 04:18:06;;;;;;;29.45;22.67;;;;;;;10.16;83.50;101554.81;4975975;28;20138;-77
2022/05/07 04:20:32;;;;;;;32.38;22.60;;;;;;;10.16;83.91;101559.22;4975661;28;20058;-78
2022/05/07 04:22:59;;;;;;;31.55;22.50;;;;;;;10.14;83.73;101551.50;4975813;28;20529;-78
2022/05/07 04:25:26;;;;;;;29.13;22.38;;;;;;;10.19;83.76;101558.97;4974617;28;20472;-76
2022/05/07 04:27:53;;;;;;;30.10;22.45;;;;;;;10.40;83.36;101561.56;4974149;28;20061;-76
2022/05/07 04:30:22;;;;;;;29.45;21.40;;;;;;;10.45;83.07;101559.34;4973868;28;20145;-77
2022/05/07 04:32:49;;;;;;;32.60;22.63;;;;;;;10.61;82.79;101557.06;4973759;28;20051;-77
2022/05/07 04:35:15;;;;;;;30.80;22.33;;;;;;;10.56;82.69;101564.50;4973706;28;20055;-76
2022/05/07 04:37:42;;;;;;;32.30;21.27;;;;;;;10.49;82.72;101568.59;4973809;28;20046;-78
2022/05/07 04:40:10;;;;;;;37.58;22.48;;;;;;;10.64;82.01;101572.50;4974163;28;20424;-77
2022/05/07 04:42:37;;;;;;;33.70;22.30;;;;;;;10.73;82.12;101568.28;4974231;28;20058;-77
2022/05/07 04:45:04;;;;;;;32.95;21.85;;;;;;;10.80;81.34;101570.22;4974031;28;20047;-74
2022/05/07 04:47:32;;;;;;;33.67;22.38;;;;;;;10.68;81.99;101578.31;4974061;28;20129;-75
2022/05/07 04:49:59;;;;;;;41.13;22.40;;;;;;;10.71;82.24;101568.41;4973326;28;20138;-76
2022/05/07 04:52:26;;;;;;;35.63;22.80;;;;;;;10.68;82.11;101566.06;4974041;28;20046;-76
2022/05/07 04:54:53;;;;;;;34.58;22.33;;;;;;;10.57;83.13;101572.22;4973720;28;20055;-76
2022/05/07 04:57:20;;;;;;;32.65;21.58;;;;;;;10.76;82.38;101568.84;4974427;28;20094;-76
2022/05/07 04:59:47;;;;;;;26.92;21.75;;;;;;;10.94;81.78;101567.19;4974172;28;20057;-77
2022/05/07 05:02:14;;;;;;;33.55;22.67;;;;;;;11.04;81.24;101574.25;4974279;28;20470;-77
2022/05/07 05:04:41;;;;;;;34.13;21.80;;;;;;;11.04;81.01;101574.25;4974401;28;20042;-76
2022/05/07 05:07:08;;;;;;;31.52;22.10;;;;;;;11.19;80.33;101573.72;4974339;28;20494;-76
2022/05/07 05:09:35;;;;;;;30.58;21.15;;;;;;;11.29;79.70;101574.56;4973872;28;20129;-75
2022/05/07 05:12:01;;;;;;;27.65;20.35;;;;;;;11.32;79.64;101573.47;4974757;28;20054;-75
2022/05/07 05:17:12;;;;;;;31.55;22.15;;;;;;;11.55;78.64;101569.56;4973851;28;20484;-76
2022/05/07 05:19:38;;;;;;;32.83;20.63;;;;;;;11.73;77.90;101584.59;4973057;28;20137;-75
2022/05/07 05:22:06;;;;;;;28.48;20.90;;;;;;;11.90;77.37;101581.25;4973674;28;20150;-76
2022/05/07 05:24:33;;;;;;;26.50;20.58;;;;;;;12.13;77.36;101592.25;4973352;28;20134;-76
2022/05/07 05:26:59;;;;;;;30.08;21.52;;;;;;;12.30;76.83;101597.56;4973908;28;20133;-77
2022/05/07 05:32:05;;;;;;;31.33;22.38;;;;;;;13.39;72.46;101590.59;5030877;23;20057;-81
2022/05/07 05:34:32;;;;;;;27.52;19.73;;;;;;;14.05;69.02;101595.38;4995974;28;20073;-80
2022/05/07 05:36:58;;;;;;;27.10;20.42;;;;;;;14.26;67.95;101595.00;4994913;28;20092;-82
2022/05/07 05:39:32;;;;;;;25.48;18.95;;;;;;;14.49;66.95;101595.31;4995403;28;20560;-81
2022/05/07 05:41:59;;;;;;;26.92;20.13;;;;;;;14.21;68.21;101606.00;4976223;28;20521;-80
2022/05/07 05:44:25;;;;;;;22.70;20.23;;;;;;;14.20;68.31;101592.97;4977222;28;20495;-81
2022/05/07 05:46:58;;;;;;;29.25;21.73;;;;;;;14.47;68.38;101605.19;4977578;28;20057;-81
2022/05/07 05:49:25;;;;;;;26.27;21.08;;;;;;;14.97;66.72;101601.72;4977672;28;20110;-81
2022/05/07 05:51:51;;;;;;;27.27;21.27;;;;;;;15.46;65.17;101610.53;4976669;28;20129;-83
2022/05/07 05:54:18;;;;;;;25.35;20.92;;;;;;;15.04;65.98;101605.38;4980584;28;20114;-85
2022/05/07 05:56:46;;;;;;;26.52;21.02;;;;;;;15.73;64.43;101596.22;4977975;28;20134;-84
2022/05/07 05:59:13;;;;;;;26.38;21.20;;;;;;;16.34;62.17;101605.34;4976878;28;20054;-83
2022/05/07 06:01:39;;;;;;;27.63;20.40;;;;;;;16.54;61.74;101594.19;4982990;28;20061;-83
2022/05/07 06:04:07;;;;;;;23.55;21.00;;;;;;;16.46;61.38;101609.28;4982698;28;20047;-81
2022/05/07 06:06:33;;;;;;;25.80;20.05;;;;;;;16.98;60.23;101598.97;4978024;28;20109;-83
2022/05/07 06:09:00;;;;;;;23.55;20.00;;;;;;;17.41;58.79;101597.53;4976438;28;20133;-82
2022/05/07 06:11:27;;;;;;;22.95;19.63;;;;;;;17.97;56.81;101613.91;4976199;28;20130;-81
2022/05/07 06:13:55;;;;;;;24.67;20.77;;;;;;;18.06;57.04;101607.53;4976404;28;20426;-82
2022/05/07 06:16:21;;;;;;;24.70;20.42;;;;;;;18.12;56.56;101611.28;4975599;28;20057;-82
2022/05/07 06:18:48;;;;;;;25.85;20.08;;;;;;;18.50;55.13;101612.81;4976100;28;20150;-80
2022/05/07 06:21:14;;;;;;;25.73;19.08;;;;;;;19.38;53.02;101614.44;4976138;28;20083;-82
2022/05/07 06:23:41;;;;;;;25.23;19.10;;;;;;;18.95;53.91;101615.44;4976277;28;20046;-82
2022/05/07 06:28:53;;;;;;;24.92;19.88;;;;;;;18.05;56.50;101613.84;4975267;28;20061;-84
2022/05/07 06:31:21;;;;;;;24.58;20.52;;;;;;;17.56;57.64;101616.06;4977556;28;20046;-82
2022/05/07 06:33:47;;;;;;;24.50;20.90;;;;;;;17.46;58.37;101608.41;4978690;28;20543;-83
2022/05/07 06:36:14;;;;;;;27.35;20.23;;;;;;;19.05;54.03;101618.59;4978504;28;20454;-82
2022/05/07 06:38:41;;;;;;;24.15;19.98;;;;;;;19.58;51.90;101614.66;4978775;28;20215;-82
2022/05/07 06:41:08;;;;;;;24.05;20.65;;;;;;;19.60;52.36;101609.16;4978792;28;20430;-82
2022/05/07 06:43:35;;;;;;;27.08;20.27;;;;;;;18.94;53.90;101608.47;4978120;28;20051;-82
2022/05/07 06:46:02;;;;;;;24.42;19.73;;;;;;;20.21;50.78;101612.88;4978174;28;20051;-83
2022/05/07 06:48:30;;;;;;;24.52;19.42;;;;;;;20.38;50.24;101608.09;4978634;28;20078;-82
2022/05/07 06:50:57;;;;;;;23.35;19.05;;;;;;;20.47;50.62;101612.22;4978663;28;20057;-82
2022/05/07 06:53:24;;;;;;;24.88;21.50;;;;;;;19.35;53.54;101622.81;4978655;28;20145;-83
2022/05/07 06:55:59;;;;;;;24.85;20.02;;;;;;;20.26;51.36;101609.66;4981851;28;20062;-81
2022/05/07 06:58:29;;;;;;;25.38;20.23;;;;;;;20.13;50.92;101603.22;4981460;28;20051;-85
2022/05/07 07:00:57;;;;;;;24.58;20.33;;;;;;;19.51;53.20;101613.78;4987042;28;20042;-83
2022/05/07 07:03:25;;;;;;;25.80;20.83;;;;;;;19.56;52.49;101608.72;4982060;28;20050;-85
2022/05/07 07:05:55;;;;;;;28.45;21.05;;;;;;;19.50;53.09;101610.28;4980957;28;20051;-84
2022/05/07 07:08:21;;;;;;;33.35;21.90;;;;;;;18.72;55.08;101611.09;4981746;28;20070;-84
2022/05/07 07:10:48;;;;;;;33.28;21.85;;;;;;;18.62;55.53;101610.56;4979058;28;20133;-81
2022/05/07 07:13:16;;;;;;;26.80;21.42;;;;;;;19.79;52.70;101612.00;4982569;28;20051;-81
2022/05/07 07:15:42;;;;;;;28.88;20.73;;;;;;;20.41;50.93;101610.34;4977881;28;20109;-81
2022/05/07 07:18:10;;;;;;;25.48;20.45;;;;;;;19.60;52.23;101612.66;4977549;28;20388;-81
2022/05/07 07:20:42;;;;;;;28.65;21.75;;;;;;;19.90;51.95;101605.31;4977837;28;20109;-81
2022/05/07 07:23:11;;;;;;;28.85;22.80;;;;;;;20.31;50.44;101609.88;4978506;28;20149;-81
2022/05/07 07:25:38;;;;;;;30.48;22.40;;;;;;;19.91;51.34;101609.59;4977967;28;20192;-81
2022/05/07 07:28:05;;;;;;;26.45;20.70;;;;;;;20.85;48.94;101605.41;4978407;28;20083;-80
2022/05/07 07:30:32;;;;;;;27.08;21.13;;;;;;;19.51;51.31;101614.59;4978239;28;20057;-82
2022/05/07 07:32:59;;;;;;;27.13;21.05;;;;;;;19.50;50.84;101610.28;4979043;28;20137;-82
2022/05/07 07:35:26;;;;;;;25.80;19.27;;;;;;;20.29;49.30;101609.25;4978103;28;20475;-84
2022/05/07 07:37:52;;;;;;;25.25;21.10;;;;;;;20.03;51.31;101610.72;4979259;28;20222;-83
2022/05/07 07:40:20;;;;;;;27.67;20.13;;;;;;;20.84;49.09;101622.41;4979155;28;20085;-83
2022/05/07 07:42:47;;;;;;;24.50;19.67;;;;;;;21.09;47.79;101612.03;4977703;28;20114;-81
2022/05/07 07:48:05;;;;;;;26.52;20.50;;;;;;;21.64;46.69;101611.94;4978194;28;20061;-79
2022/05/07 07:50:36;;;;;;;24.35;19.27;;;;;;;22.45;43.98;101615.09;4977567;28;20141;-82
2022/05/07 07:53:06;;;;;;;25.67;18.55;;;;;;;23.11;42.63;101612.16;4978054;28;20109;-84
2022/05/07 07:55:36;;;;;;;26.55;18.92;;;;;;;22.91;43.14;101627.44;4973722;28;20042;-80
2022/05/07 07:58:08;;;;;;;24.55;19.08;;;;;;;22.67;44.66;101624.47;4975217;28;20047;-84
2022/05/07 08:00:44;;;;;;;27.52;17.95;;;;;;;22.77;42.82;101622.13;4977100;28;20073;-83
2022/05/07 08:03:21;;;;;;;24.98;18.73;;;;;;;22.45;43.91;101621.25;4977716;28;20054;-82
2022/05/07 08:05:57;;;;;;;21.40;17.10;;;;;;;22.63;43.38;101611.75;4979452;28;20425;-83
2022/05/07 08:11:56;;;;;;;22.40;15.75;;;;;;;22.98;42.71;101628.22;5176536;23;20159;-83
2022/05/07 08:31:06;;;;;;;20.73;16.17;;;;;;;22.51;43.38;101612.41;4899228;29;20072;-85
2022/05/07 08:33:47;;;;;;;21.80;16.05;;;;;;;22.75;44.69;101634.03;4905501;29;20060;-83
2022/05/07 08:36:15;;;;;;;21.98;15.23;;;;;;;22.28;46.28;101608.56;4972228;28;20065;-82
2022/05/07 08:38:49;;;;;;;18.25;15.20;;;;;;;22.36;44.63;101619.00;4979777;28;20450;-83
2022/05/07 08:44:53;;;;;;;20.77;14.40;;;;;;;22.85;43.21;101613.09;4981857;28;20376;-84
2022/05/07 08:47:21;;;;;;;20.02;14.65;;;;;;;23.61;41.77;101621.06;4986933;28;20081;-81
2022/05/07 08:50:01;;;;;;;22.50;14.60;;;;;;;23.29;41.37;101604.19;4995653;28;20105;-82
2022/05/07 08:52:30;;;;;;;23.40;14.65;;;;;;;22.70;41.12;101600.00;4997908;28;20070;-83
2022/05/07 08:57:54;;;;;;;17.80;13.73;;;;;;;23.82;40.16;101601.94;4987355;28;20334;-81
2022/05/07 09:00:31;;;;;;;18.15;13.60;;;;;;;24.25;41.03;101606.47;4995253;28;20477;-85
2022/05/07 09:03:17;;;;;;;20.33;14.27;;;;;;;23.94;40.85;101628.78;5006376;28;20106;-84
2022/05/07 09:05:53;;;;;;;20.40;14.85;;;;;;;23.11;42.61;101612.97;5006409;28;20056;-82
2022/05/07 09:08:27;;;;;;;22.63;14.48;;;;;;;24.45;40.52;101600.91;5005264;28;20050;-82
2022/05/07 09:11:03;;;;;;;19.30;13.68;;;;;;;23.77;41.24;101615.13;5000553;28;20050;-82
2022/05/07 09:13:37;;;;;;;19.75;13.68;;;;;;;23.74;41.65;101620.91;5007639;28;20054;-82
2022/05/07 09:16:14;;;;;;;19.42;13.48;;;;;;;23.85;40.23;101597.19;4998276;28;20468;-82
2022/05/07 09:19:00;;;;;;;19.42;14.13;;;;;;;23.83;40.99;101610.78;4995459;28;20050;-81
2022/05/07 09:21:35;;;;;;;20.80;12.98;;;;;;;23.87;41.04;101597.78;4999158;28;20460;-83
2022/05/07 09:26:59;;;;;;;20.05;12.88;;;;;;;23.56;42.24;101593.34;4982939;28;20046;-84
2022/05/07 09:39:44;;;;;;;21.80;14.00;;;;;;;24.22;39.01;101579.31;4985099;28;20054;-83
2022/05/07 09:43:00;;;;;;;24.48;13.05;;;;;;;23.40;40.73;101584.81;4998639;28;20108;-80
2022/05/07 09:45:58;;;;;;;26.70;12.52;;;;;;;23.94;40.86;101590.53;4996458;28;20047;-83
2022/05/07 09:48:35;;;;;;;20.23;14.20;;;;;;;23.82;39.74;101577.06;4915441;29;20151;-83
2022/05/07 10:01:20;;;;;;;23.45;14.38;;;;;;;24.11;39.94;101576.34;4857853;29;20049;-81
2022/05/07 10:04:08;;;;;;;19.08;14.27;;;;;;;23.25;40.56;101578.13;4922954;28;20050;-82
2022/05/07 10:07:01;;;;;;;24.45;14.93;;;;;;;23.41;39.99;101570.41;4993020;28;20487;-82
2022/05/07 10:10:29;;;;;;;20.50;13.40;;;;;;;23.72;40.41;101569.53;4995087;28;20047;-82
2022/05/07 10:13:12;;;;;;;24.17;14.90;;;;;;;23.10;40.48;101573.94;4977475;28;20055;-82
2022/05/07 10:16:21;;;;;;;24.92;15.27;;;;;;;22.93;40.08;101564.00;4982692;28;20055;-82
2022/05/07 10:22:41;;;;;;;20.65;13.70;;;;;;;23.24;41.56;101566.63;5039749;23;20117;-83
2022/05/07 10:25:36;;;;;;;22.20;14.73;;;;;;;23.87;39.41;101563.88;5022153;28;20053;-83
2022/05/07 10:34:28;;;;;;;21.42;15.38;;;;;;;;;;5016427;23;20058;-79
2022/05/07 10:37:02;;;;;;;22.73;16.02;;;;;;;23.83;40.05;101568.81;5018853;28;20124;-77
2022/05/07 10:39:29;;;;;;;20.42;15.20;;;;;;;24.09;37.91;101567.75;5019181;28;20507;-77
2022/05/07 10:41:57;;;;;;;21.25;15.23;;;;;;;24.27;38.80;101571.47;5019649;28;20058;-77
2022/05/07 10:44:31;;;;;;;20.85;15.35;;;;;;;24.72;38.38;101567.38;5010750;28;20046;-78
2022/05/07 10:47:09;;;;;;;22.95;15.90;;;;;;;24.63;38.31;101568.75;4996944;28;20073;-78
2022/05/07 10:49:49;;;;;;;25.58;16.65;;;;;;;24.29;38.13;101572.88;4998960;28;20420;-78
2022/05/07 10:52:15;;;;;;;21.17;15.10;;;;;;;24.41;38.33;101564.94;4999617;28;20054;-80
2022/05/07 10:54:42;;;;;;;26.23;19.00;;;;;;;23.28;38.98;101577.72;4999646;28;20078;-79
2022/05/07 10:57:09;;;;;;;24.38;18.20;;;;;;;23.44;39.49;101569.16;5000420;28;20089;-79
2022/05/07 10:59:36;;;;;;;23.50;18.00;;;;;;;23.82;38.85;101561.84;4999082;28;20076;-79
2022/05/07 11:02:08;;;;;;;23.73;16.65;;;;;;;24.20;37.86;101557.31;5000076;28;20305;-78
2022/05/07 11:04:45;;;;;;;22.83;15.55;;;;;;;24.20;38.67;101562.66;5001492;28;20050;-79
2022/05/07 11:07:11;;;;;;;21.17;15.50;;;;;;;24.14;38.87;101559.84;5000581;28;20513;-79
2022/05/07 11:09:38;;;;;;;27.38;20.58;;;;;;;24.16;38.56;101560.44;5002803;28;20610;-79
2022/05/07 11:12:06;;;;;;;22.42;17.13;;;;;;;23.74;39.18;101545.28;5003070;28;20058;-79
2022/05/07 11:14:35;;;;;;;22.73;17.95;;;;;;;24.15;38.81;101555.31;5004435;28;20101;-78
2022/05/07 11:17:04;;;;;;;25.42;19.15;;;;;;;24.17;38.14;101546.03;5001485;28;20141;-79
2022/05/07 11:19:33;;;;;;;21.27;18.77;;;;;;;24.21;37.71;101542.91;5001535;28;20076;-78
2022/05/07 11:22:02;;;;;;;24.15;17.63;;;;;;;24.52;38.11;101555.34;5013254;28;20089;-78
2022/05/07 11:24:30;;;;;;;20.67;15.50;;;;;;;25.09;38.15;101545.88;5032988;28;20046;-78
2022/05/07 11:27:00;;;;;;;21.10;17.38;;;;;;;25.38;36.28;101536.97;5023158;28;20065;-78
2022/05/07 11:29:28;;;;;;;22.13;16.75;;;;;;;25.06;36.87;101544.47;5030177;28;20114;-79
2022/05/07 11:31:56;;;;;;;21.80;15.82;;;;;;;25.78;36.24;101537.09;5031221;28;20420;-77
2022/05/07 11:34:31;;;;;;;26.15;16.15;;;;;;;25.34;36.35;101533.09;5027901;28;20083;-78
2022/05/07 11:37:09;;;;;;;20.42;16.67;;;;;;;25.37;36.08;101538.00;5020531;28;20123;-79
2022/05/07 11:39:47;;;;;;;20.77;17.48;;;;;;;24.72;35.80;101534.44;5018249;28;20077;-78
2022/05/07 11:42:25;;;;;;;18.63;16.42;;;;;;;24.72;36.85;101545.97;5018626;28;20408;-77
2022/05/07 11:47:37;;;;;;;21.65;16.67;;;;;;;25.17;37.00;101537.50;5019919;28;20136;-80
2022/05/07 11:50:07;;;;;;;23.45;17.23;;;;;;;24.76;36.85;101531.09;5017024;28;20125;-79
2022/05/07 11:52:34;;;;;;;22.42;17.70;;;;;;;24.51;37.57;101522.41;5017760;28;20539;-78
2022/05/07 11:55:06;;;;;;;20.85;15.85;;;;;;;25.22;37.55;101532.28;5020132;28;20060;-77
2022/05/07 11:57:35;;;;;;;24.65;16.95;;;;;;;25.51;35.89;101527.06;5016609;28;20054;-78
2022/05/07 12:00:16;;;;;;;22.85;16.63;;;;;;;25.50;35.54;101510.16;5008149;28;20508;-77
2022/05/07 12:02:54;;;;;;;22.10;17.70;;;;;;;25.33;36.59;101519.94;5003004;28;20053;-78
2022/05/07 12:05:21;;;;;;;23.27;17.15;;;;;;;25.10;36.48;101521.53;5010408;28;20144;-80
2022/05/07 12:07:50;;;;;;;19.98;16.15;;;;;;;25.62;36.30;101518.19;5002113;28;20046;-78
2022/05/07 12:10:19;;;;;;;25.98;17.73;;;;;;;25.49;35.32;101521.13;5014205;28;20061;-79
2022/05/07 12:12:47;;;;;;;25.52;19.10;;;;;;;24.77;36.37;101518.53;5019833;28;20467;-80
2022/05/07 12:15:14;;;;;;;22.77;17.48;;;;;;;25.25;35.87;101518.41;5021139;28;20046;-79
2022/05/07 12:20:23;;;;;;;22.90;17.30;;;;;;;24.57;37.41;101510.81;4997793;28;20512;-79
2022/05/07 12:31:04;;;;;;;20.27;17.52;;;;;;;24.50;43.56;101495.88;5002222;28;20060;-80
2022/05/07 12:33:32;;;;;;;27.70;19.08;;;;;;;24.23;49.19;101503.41;4999895;28;20070;-79
2022/05/07 12:35:59;;;;;;;22.08;17.48;;;;;;;24.06;49.65;101504.03;4998971;28;20078;-79
2022/05/07 12:38:27;;;;;;;24.38;19.20;;;;;;;23.57;42.64;101493.47;4997977;28;20133;-79
2022/05/07 12:40:55;;;;;;;25.50;18.35;;;;;;;23.69;42.25;101492.50;4999122;28;20058;-79
2022/05/07 12:43:21;;;;;;;20.98;17.65;;;;;;;;;;4998634;28;20137;-77
2022/05/07 12:45:49;;;;;;;21.20;16.75;;;;;;;23.75;39.48;101490.78;5003151;28;20042;-79
2022/05/07 12:48:17;;;;;;;18.73;15.00;;;;;;;23.88;39.39;101489.84;5003863;28;20050;-80
2022/05/07 12:50:46;;;;;;;23.95;15.63;;;;;;;23.77;40.28;101483.38;5003342;28;20050;-80
2022/05/07 12:53:12;;;;;;;20.13;14.85;;;;;;;23.69;41.81;101486.34;5013362;28;20065;-80
2022/05/07 12:55:39;;;;;;;21.98;16.27;;;;;;;23.29;42.46;101485.88;5013498;28;20110;-81